Marshfield, WI

1:40 AM CDT on June 30, 2015 (GMT -0500)
Marshfield Municipal | | Change Station
CLOSE
Current Station
Airport
Location: Marshfield,
Elevation: 1276 ft
Nearby Weather Stations

Elev 1276 ft 44.64 °N, 90.19 °W | Updated 46 minutes ago

Partly Cloudy
Partly Cloudy
59 °F
Feels Like 59 °F
N
7
Wind Variable Wind from NW

Today
High -- | Low -- °F
--% Chance of Precip.
Yesterday
High -- | Low -- °F
Precip. -- in
5:18 AM 8:49 PM
Waxing Gibbous, 96% visible
Pressure 29.81 in
Visibility 4.0 miles
Clouds Few 9500 ft
Dew Point 55 °F
Humidity 87%
Rainfall 0.00 in
Snow Depth Not available.
UV 0 out of 12
Pollen .80 out of 12
Air Quality Not available.
Flu Activity Sporadic
METAR KMFI 300554Z AUTO 31006KT 4SM BR FEW095 15/13 A2982 RMK AO2 SLP093 T01500128 10172 20144 402560144 51005

More Conditions Fewer Conditions

Pressure 29.81 in
Visibility 4.0 miles
Clouds Few 9500 ft
Dew Point 55 °F
Humidity 87%
Rainfall 0.00 in
Snow Depth Not available.
UV 0 out of 12
Pollen .80 out of 12
Air Quality Not available.
Flu Activity Sporadic
METAR KMFI 300554Z AUTO 31006KT 4SM BR FEW095 15/13 A2982 RMK AO2 SLP093 T01500128 10172 20144 402560144 51005

More Conditions Fewer Conditions

10-Day Weather Forecast

×

Almanac

Astronomy

Jun. 30, 2015 Rise Set
Actual Time
Civil Twilight
Nautical Twilight
Astronomical Twilight
Moon
Length of Visible Light
Length of Day
Tomorrow will be .
, % of the Moon is Illuminated

Today's Extremes

State Highs State Lows

Community

WunderPhotos

Upload Photos

1,833,971 photos uploaded!

WunderBlogs® & News

Nearby

Air Quality

  Air Quality AQ Index Pollutant
Not available.

Snow Depth

Station Depth Elevation

Earthquake Activity

City Distance Mag. Time & Date
Minimum magnitude displayed is 2.5.

Coastal Water Temperatures

Place Temperature

Stations

Nearby Weather Stations

Station Location Temp. Windchill Dew Point Humidity Wind Precip. Elev Updated Type